sensor_id;sensor_type;location;lat;lon;timestamp;P1;durP1;ratioP1;P2;durP2;ratioP2
16442;SDS011;8331;51.654;14.376;2023-12-04T00:01:53;17.40;;;10.63;;
16442;SDS011;8331;51.654;14.376;2023-12-04T00:04:20;19.20;;;11.40;;
16442;SDS011;8331;51.654;14.376;2023-12-04T00:06:47;18.63;;;10.60;;
16442;SDS011;8331;51.654;14.376;2023-12-04T00:09:13;17.97;;;11.43;;
16442;SDS011;8331;51.654;14.376;2023-12-04T00:11:40;18.47;;;11.53;;
16442;SDS011;8331;51.654;14.376;2023-12-04T00:14:07;18.83;;;11.27;;
16442;SDS011;8331;51.654;14.376;2023-12-04T00:16:34;19.73;;;11.33;;
16442;SDS011;8331;51.654;14.376;2023-12-04T00:19:04;19.03;;;11.17;;
16442;SDS011;8331;51.654;14.376;2023-12-04T00:21:31;17.80;;;11.47;;
16442;SDS011;8331;51.654;14.376;2023-12-04T00:23:57;17.53;;;10.90;;
16442;SDS011;8331;51.654;14.376;2023-12-04T00:26:24;15.87;;;10.73;;
16442;SDS011;8331;51.654;14.376;2023-12-04T00:28:51;17.53;;;10.87;;
16442;SDS011;8331;51.654;14.376;2023-12-04T00:31:17;18.23;;;11.00;;
16442;SDS011;8331;51.654;14.376;2023-12-04T00:33:44;18.23;;;11.10;;
16442;SDS011;8331;51.654;14.376;2023-12-04T00:36:11;20.63;;;10.93;;
16442;SDS011;8331;51.654;14.376;2023-12-04T00:38:37;19.07;;;11.97;;
16442;SDS011;8331;51.654;14.376;2023-12-04T00:41:04;20.07;;;11.00;;
16442;SDS011;8331;51.654;14.376;2023-12-04T00:43:31;20.87;;;11.67;;
16442;SDS011;8331;51.654;14.376;2023-12-04T00:45:57;16.80;;;10.80;;
16442;SDS011;8331;51.654;14.376;2023-12-04T00:48:24;19.47;;;10.80;;
16442;SDS011;8331;51.654;14.376;2023-12-04T00:50:51;20.73;;;11.27;;
16442;SDS011;8331;51.654;14.376;2023-12-04T00:53:18;19.10;;;13.35;;
16442;SDS011;8331;51.654;14.376;2023-12-04T00:55:44;18.83;;;12.30;;
16442;SDS011;8331;51.654;14.376;2023-12-04T00:58:11;23.67;;;14.17;;
16442;SDS011;8331;51.654;14.376;2023-12-04T01:00:38;19.40;;;12.17;;
16442;SDS011;8331;51.654;14.376;2023-12-04T01:03:04;20.23;;;12.57;;
16442;SDS011;8331;51.654;14.376;2023-12-04T01:05:31;19.30;;;11.70;;
16442;SDS011;8331;51.654;14.376;2023-12-04T01:07:58;23.30;;;12.77;;
16442;SDS011;8331;51.654;14.376;2023-12-04T01:10:24;22.33;;;13.07;;
16442;SDS011;8331;51.654;14.376;2023-12-04T01:12:51;21.27;;;11.83;;
16442;SDS011;8331;51.654;14.376;2023-12-04T01:15:17;21.27;;;12.63;;
16442;SDS011;8331;51.654;14.376;2023-12-04T01:17:44;20.20;;;11.57;;
16442;SDS011;8331;51.654;14.376;2023-12-04T01:20:11;20.60;;;12.00;;
16442;SDS011;8331;51.654;14.376;2023-12-04T01:22:38;24.23;;;13.40;;
16442;SDS011;8331;51.654;14.376;2023-12-04T01:25:04;21.50;;;12.60;;
16442;SDS011;8331;51.654;14.376;2023-12-04T01:27:31;21.90;;;11.70;;
16442;SDS011;8331;51.654;14.376;2023-12-04T01:29:58;21.17;;;12.47;;
16442;SDS011;8331;51.654;14.376;2023-12-04T01:32:25;22.00;;;12.97;;
16442;SDS011;8331;51.654;14.376;2023-12-04T01:34:52;23.25;;;16.77;;
16442;SDS011;8331;51.654;14.376;2023-12-04T01:37:19;22.67;;;13.43;;
16442;SDS011;8331;51.654;14.376;2023-12-04T01:39:45;19.83;;;12.70;;
16442;SDS011;8331;51.654;14.376;2023-12-04T01:42:12;21.23;;;12.00;;
16442;SDS011;8331;51.654;14.376;2023-12-04T01:44:39;20.80;;;12.50;;
16442;SDS011;8331;51.654;14.376;2023-12-04T01:47:05;20.27;;;12.13;;
16442;SDS011;8331;51.654;14.376;2023-12-04T01:49:33;24.20;;;13.97;;
16442;SDS011;8331;51.654;14.376;2023-12-04T01:52:00;23.87;;;13.60;;
16442;SDS011;8331;51.654;14.376;2023-12-04T01:54:27;20.23;;;12.77;;
16442;SDS011;8331;51.654;14.376;2023-12-04T01:56:54;22.10;;;13.83;;
16442;SDS011;8331;51.654;14.376;2023-12-04T01:59:21;23.23;;;13.50;;
16442;SDS011;8331;51.654;14.376;2023-12-04T02:01:47;22.37;;;13.07;;
16442;SDS011;8331;51.654;14.376;2023-12-04T02:04:14;19.93;;;12.70;;
16442;SDS011;8331;51.654;14.376;2023-12-04T02:06:41;23.10;;;12.77;;
16442;SDS011;8331;51.654;14.376;2023-12-04T02:09:08;21.90;;;12.67;;
16442;SDS011;8331;51.654;14.376;2023-12-04T02:11:38;21.40;;;12.00;;
16442;SDS011;8331;51.654;14.376;2023-12-04T02:14:05;20.93;;;12.43;;
16442;SDS011;8331;51.654;14.376;2023-12-04T02:16:34;20.30;;;12.77;;
16442;SDS011;8331;51.654;14.376;2023-12-04T02:19:03;22.27;;;12.30;;
16442;SDS011;8331;51.654;14.376;2023-12-04T02:21:30;25.40;;;13.83;;
16442;SDS011;8331;51.654;14.376;2023-12-04T02:23:56;24.53;;;13.23;;
16442;SDS011;8331;51.654;14.376;2023-12-04T02:26:24;23.40;;;13.27;;
16442;SDS011;8331;51.654;14.376;2023-12-04T02:28:54;17.97;;;11.47;;
16442;SDS011;8331;51.654;14.376;2023-12-04T02:31:21;19.07;;;12.27;;
16442;SDS011;8331;51.654;14.376;2023-12-04T02:33:52;20.30;;;12.33;;
16442;SDS011;8331;51.654;14.376;2023-12-04T02:36:19;22.83;;;12.30;;
16442;SDS011;8331;51.654;14.376;2023-12-04T02:38:47;21.07;;;12.47;;
16442;SDS011;8331;51.654;14.376;2023-12-04T02:41:13;20.67;;;12.57;;
16442;SDS011;8331;51.654;14.376;2023-12-04T02:43:40;16.60;;;11.57;;
16442;SDS011;8331;51.654;14.376;2023-12-04T02:46:07;19.40;;;11.90;;
16442;SDS011;8331;51.654;14.376;2023-12-04T02:48:33;18.97;;;11.90;;
16442;SDS011;8331;51.654;14.376;2023-12-04T02:51:00;21.23;;;11.63;;
16442;SDS011;8331;51.654;14.376;2023-12-04T02:53:27;20.37;;;12.13;;
16442;SDS011;8331;51.654;14.376;2023-12-04T02:55:54;19.30;;;11.27;;
16442;SDS011;8331;51.654;14.376;2023-12-04T02:58:20;19.10;;;11.60;;
16442;SDS011;8331;51.654;14.376;2023-12-04T03:00:47;19.10;;;11.17;;
16442;SDS011;8331;51.654;14.376;2023-12-04T03:03:14;21.40;;;12.03;;
16442;SDS011;8331;51.654;14.376;2023-12-04T03:05:40;15.53;;;10.00;;
16442;SDS011;8331;51.654;14.376;2023-12-04T03:08:07;21.37;;;12.53;;
16442;SDS011;8331;51.654;14.376;2023-12-04T03:10:34;19.20;;;11.70;;
16442;SDS011;8331;51.654;14.376;2023-12-04T03:13:00;18.13;;;11.17;;
16442;SDS011;8331;51.654;14.376;2023-12-04T03:15:27;20.37;;;11.70;;
16442;SDS011;8331;51.654;14.376;2023-12-04T03:17:58;19.13;;;11.70;;
16442;SDS011;8331;51.654;14.376;2023-12-04T03:20:24;21.23;;;11.90;;
16442;SDS011;8331;51.654;14.376;2023-12-04T03:22:51;19.17;;;11.43;;
16442;SDS011;8331;51.654;14.376;2023-12-04T03:25:18;16.63;;;11.40;;
16442;SDS011;8331;51.654;14.376;2023-12-04T03:27:44;18.80;;;11.47;;
16442;SDS011;8331;51.654;14.376;2023-12-04T03:30:11;17.07;;;10.93;;
16442;SDS011;8331;51.654;14.376;2023-12-04T03:32:38;17.80;;;10.87;;
16442;SDS011;8331;51.654;14.376;2023-12-04T03:35:04;20.60;;;11.37;;
16442;SDS011;8331;51.654;14.376;2023-12-04T03:37:31;19.10;;;12.07;;
16442;SDS011;8331;51.654;14.376;2023-12-04T03:39:58;19.93;;;11.40;;
16442;SDS011;8331;51.654;14.376;2023-12-04T03:42:24;17.33;;;10.77;;
16442;SDS011;8331;51.654;14.376;2023-12-04T03:44:51;20.40;;;11.33;;
16442;SDS011;8331;51.654;14.376;2023-12-04T03:47:17;18.63;;;10.97;;
16442;SDS011;8331;51.654;14.376;2023-12-04T03:49:44;19.17;;;11.50;;
16442;SDS011;8331;51.654;14.376;2023-12-04T03:52:11;16.10;;;10.37;;
16442;SDS011;8331;51.654;14.376;2023-12-04T03:54:37;19.63;;;11.63;;
16442;SDS011;8331;51.654;14.376;2023-12-04T03:57:04;18.97;;;10.83;;
16442;SDS011;8331;51.654;14.376;2023-12-04T03:59:31;18.30;;;10.87;;
16442;SDS011;8331;51.654;14.376;2023-12-04T04:01:58;17.03;;;10.90;;
16442;SDS011;8331;51.654;14.376;2023-12-04T04:04:24;32.27;;;16.07;;
16442;SDS011;8331;51.654;14.376;2023-12-04T04:06:51;22.03;;;12.17;;
16442;SDS011;8331;51.654;14.376;2023-12-04T04:09:18;28.23;;;13.97;;
16442;SDS011;8331;51.654;14.376;2023-12-04T04:11:46;22.10;;;11.43;;
16442;SDS011;8331;51.654;14.376;2023-12-04T04:14:13;18.23;;;10.43;;
16442;SDS011;8331;51.654;14.376;2023-12-04T04:16:39;22.63;;;10.37;;
16442;SDS011;8331;51.654;14.376;2023-12-04T04:19:06;21.70;;;11.70;;
16442;SDS011;8331;51.654;14.376;2023-12-04T04:21:33;25.67;;;12.10;;
16442;SDS011;8331;51.654;14.376;2023-12-04T04:24:01;18.50;;;10.93;;
16442;SDS011;8331;51.654;14.376;2023-12-04T04:26:28;26.70;;;13.57;;
16442;SDS011;8331;51.654;14.376;2023-12-04T04:28:55;59.30;;;23.83;;
16442;SDS011;8331;51.654;14.376;2023-12-04T04:31:21;78.37;;;30.67;;
16442;SDS011;8331;51.654;14.376;2023-12-04T04:33:48;63.40;;;27.07;;
16442;SDS011;8331;51.654;14.376;2023-12-04T04:36:14;69.07;;;28.07;;
16442;SDS011;8331;51.654;14.376;2023-12-04T04:38:41;75.67;;;33.00;;
16442;SDS011;8331;51.654;14.376;2023-12-04T04:41:12;71.20;;;30.53;;
16442;SDS011;8331;51.654;14.376;2023-12-04T04:43:39;63.30;;;26.37;;
16442;SDS011;8331;51.654;14.376;2023-12-04T04:46:06;63.30;;;30.17;;
16442;SDS011;8331;51.654;14.376;2023-12-04T04:48:32;55.33;;;28.67;;
16442;SDS011;8331;51.654;14.376;2023-12-04T04:50:59;46.07;;;24.17;;
16442;SDS011;8331;51.654;14.376;2023-12-04T04:53:26;28.20;;;17.50;;
16442;SDS011;8331;51.654;14.376;2023-12-04T04:55:53;22.20;;;14.07;;
16442;SDS011;8331;51.654;14.376;2023-12-04T04:58:20;24.27;;;14.40;;
16442;SDS011;8331;51.654;14.376;2023-12-04T05:00:47;28.00;;;15.43;;
16442;SDS011;8331;51.654;14.376;2023-12-04T05:03:14;34.77;;;19.23;;
16442;SDS011;8331;51.654;14.376;2023-12-04T05:05:41;34.73;;;16.93;;
16442;SDS011;8331;51.654;14.376;2023-12-04T05:08:07;28.10;;;15.73;;
16442;SDS011;8331;51.654;14.376;2023-12-04T05:10:34;27.10;;;15.50;;
16442;SDS011;8331;51.654;14.376;2023-12-04T05:13:00;25.47;;;13.80;;
16442;SDS011;8331;51.654;14.376;2023-12-04T05:15:27;22.33;;;13.67;;
16442;SDS011;8331;51.654;14.376;2023-12-04T05:17:54;22.43;;;13.37;;
16442;SDS011;8331;51.654;14.376;2023-12-04T05:20:21;20.40;;;12.80;;
16442;SDS011;8331;51.654;14.376;2023-12-04T05:22:48;22.97;;;13.07;;
16442;SDS011;8331;51.654;14.376;2023-12-04T05:25:15;32.43;;;18.07;;
16442;SDS011;8331;51.654;14.376;2023-12-04T05:27:42;17.50;;;11.43;;
16442;SDS011;8331;51.654;14.376;2023-12-04T05:30:09;19.43;;;12.13;;
16442;SDS011;8331;51.654;14.376;2023-12-04T05:32:35;24.73;;;15.63;;
16442;SDS011;8331;51.654;14.376;2023-12-04T05:35:02;30.30;;;17.73;;
16442;SDS011;8331;51.654;14.376;2023-12-04T05:37:29;28.77;;;19.17;;
16442;SDS011;8331;51.654;14.376;2023-12-04T05:39:56;28.83;;;16.53;;
16442;SDS011;8331;51.654;14.376;2023-12-04T05:42:22;26.87;;;16.83;;
16442;SDS011;8331;51.654;14.376;2023-12-04T05:44:49;23.97;;;14.60;;
16442;SDS011;8331;51.654;14.376;2023-12-04T05:47:16;22.37;;;14.97;;
16442;SDS011;8331;51.654;14.376;2023-12-04T05:49:42;21.40;;;14.90;;
16442;SDS011;8331;51.654;14.376;2023-12-04T05:52:09;18.53;;;13.20;;
16442;SDS011;8331;51.654;14.376;2023-12-04T05:54:36;20.27;;;12.17;;
16442;SDS011;8331;51.654;14.376;2023-12-04T05:57:03;18.50;;;11.60;;
16442;SDS011;8331;51.654;14.376;2023-12-04T05:59:29;17.43;;;11.50;;
16442;SDS011;8331;51.654;14.376;2023-12-04T06:01:56;19.10;;;12.23;;
16442;SDS011;8331;51.654;14.376;2023-12-04T06:04:22;18.63;;;10.93;;
16442;SDS011;8331;51.654;14.376;2023-12-04T06:06:49;16.40;;;11.27;;
16442;SDS011;8331;51.654;14.376;2023-12-04T06:09:16;14.77;;;10.03;;
16442;SDS011;8331;51.654;14.376;2023-12-04T06:11:43;17.73;;;11.53;;
16442;SDS011;8331;51.654;14.376;2023-12-04T06:14:13;16.27;;;10.23;;
16442;SDS011;8331;51.654;14.376;2023-12-04T06:16:39;16.77;;;11.13;;
16442;SDS011;8331;51.654;14.376;2023-12-04T06:19:06;16.37;;;11.20;;
16442;SDS011;8331;51.654;14.376;2023-12-04T06:21:32;16.83;;;10.90;;
16442;SDS011;8331;51.654;14.376;2023-12-04T06:23:59;17.93;;;11.17;;
16442;SDS011;8331;51.654;14.376;2023-12-04T06:26:28;13.83;;;9.30;;
16442;SDS011;8331;51.654;14.376;2023-12-04T06:28:55;15.20;;;10.13;;
16442;SDS011;8331;51.654;14.376;2023-12-04T06:31:22;13.63;;;9.33;;
16442;SDS011;8331;51.654;14.376;2023-12-04T06:33:49;15.97;;;11.03;;
16442;SDS011;8331;51.654;14.376;2023-12-04T06:36:16;23.17;;;12.37;;
16442;SDS011;8331;51.654;14.376;2023-12-04T06:38:43;22.70;;;13.20;;
16442;SDS011;8331;51.654;14.376;2023-12-04T06:41:13;19.13;;;12.03;;
16442;SDS011;8331;51.654;14.376;2023-12-04T06:43:40;21.27;;;11.40;;
16442;SDS011;8331;51.654;14.376;2023-12-04T06:46:06;16.03;;;10.67;;
16442;SDS011;8331;51.654;14.376;2023-12-04T06:48:34;21.40;;;12.37;;
16442;SDS011;8331;51.654;14.376;2023-12-04T06:51:00;18.67;;;12.83;;
16442;SDS011;8331;51.654;14.376;2023-12-04T06:53:27;21.23;;;14.03;;
16442;SDS011;8331;51.654;14.376;2023-12-04T06:55:54;30.27;;;19.50;;
16442;SDS011;8331;51.654;14.376;2023-12-04T06:58:20;27.87;;;17.10;;
16442;SDS011;8331;51.654;14.376;2023-12-04T07:00:47;28.60;;;17.20;;
16442;SDS011;8331;51.654;14.376;2023-12-04T07:03:15;28.07;;;17.93;;
16442;SDS011;8331;51.654;14.376;2023-12-04T07:05:41;23.00;;;15.03;;
16442;SDS011;8331;51.654;14.376;2023-12-04T07:08:08;21.20;;;13.60;;
16442;SDS011;8331;51.654;14.376;2023-12-04T07:10:35;20.00;;;13.27;;
16442;SDS011;8331;51.654;14.376;2023-12-04T07:13:01;18.73;;;12.60;;
16442;SDS011;8331;51.654;14.376;2023-12-04T07:15:28;27.50;;;16.43;;
16442;SDS011;8331;51.654;14.376;2023-12-04T07:17:54;24.10;;;15.90;;
16442;SDS011;8331;51.654;14.376;2023-12-04T07:20:23;21.00;;;13.43;;
16442;SDS011;8331;51.654;14.376;2023-12-04T07:22:51;22.03;;;13.90;;
16442;SDS011;8331;51.654;14.376;2023-12-04T07:25:17;20.60;;;13.37;;
16442;SDS011;8331;51.654;14.376;2023-12-04T07:27:44;18.07;;;12.50;;
16442;SDS011;8331;51.654;14.376;2023-12-04T07:30:12;20.70;;;12.80;;
16442;SDS011;8331;51.654;14.376;2023-12-04T07:32:41;21.67;;;12.80;;
16442;SDS011;8331;51.654;14.376;2023-12-04T07:35:08;24.23;;;14.03;;
16442;SDS011;8331;51.654;14.376;2023-12-04T07:37:34;22.20;;;13.30;;
16442;SDS011;8331;51.654;14.376;2023-12-04T07:40:01;19.33;;;12.57;;
16442;SDS011;8331;51.654;14.376;2023-12-04T07:42:28;20.60;;;13.27;;
16442;SDS011;8331;51.654;14.376;2023-12-04T07:44:55;23.17;;;13.37;;
16442;SDS011;8331;51.654;14.376;2023-12-04T07:47:21;19.73;;;12.70;;
16442;SDS011;8331;51.654;14.376;2023-12-04T07:49:50;21.17;;;13.63;;
16442;SDS011;8331;51.654;14.376;2023-12-04T07:52:17;22.30;;;12.90;;
16442;SDS011;8331;51.654;14.376;2023-12-04T07:54:45;21.43;;;12.63;;
16442;SDS011;8331;51.654;14.376;2023-12-04T07:57:12;19.77;;;13.17;;
16442;SDS011;8331;51.654;14.376;2023-12-04T07:59:39;23.73;;;14.77;;
16442;SDS011;8331;51.654;14.376;2023-12-04T08:02:05;19.90;;;13.83;;
16442;SDS011;8331;51.654;14.376;2023-12-04T08:04:32;22.03;;;13.57;;
16442;SDS011;8331;51.654;14.376;2023-12-04T08:06:59;20.03;;;13.03;;
16442;SDS011;8331;51.654;14.376;2023-12-04T08:09:25;22.70;;;13.57;;
16442;SDS011;8331;51.654;14.376;2023-12-04T08:11:52;26.50;;;15.53;;
16442;SDS011;8331;51.654;14.376;2023-12-04T08:14:24;30.83;;;17.47;;
16442;SDS011;8331;51.654;14.376;2023-12-04T08:16:50;24.93;;;14.80;;
16442;SDS011;8331;51.654;14.376;2023-12-04T08:19:17;23.13;;;13.93;;
16442;SDS011;8331;51.654;14.376;2023-12-04T08:21:44;21.43;;;13.80;;
16442;SDS011;8331;51.654;14.376;2023-12-04T08:24:10;19.37;;;12.53;;
16442;SDS011;8331;51.654;14.376;2023-12-04T08:26:37;19.50;;;12.53;;
16442;SDS011;8331;51.654;14.376;2023-12-04T08:29:04;18.43;;;12.27;;
16442;SDS011;8331;51.654;14.376;2023-12-04T08:31:30;19.33;;;12.00;;
16442;SDS011;8331;51.654;14.376;2023-12-04T08:33:57;26.03;;;13.90;;
16442;SDS011;8331;51.654;14.376;2023-12-04T08:36:23;20.20;;;13.03;;
16442;SDS011;8331;51.654;14.376;2023-12-04T08:38:51;19.07;;;11.80;;
16442;SDS011;8331;51.654;14.376;2023-12-04T08:41:17;21.03;;;13.00;;
16442;SDS011;8331;51.654;14.376;2023-12-04T08:43:44;20.93;;;14.07;;
16442;SDS011;8331;51.654;14.376;2023-12-04T08:46:12;19.80;;;12.43;;
16442;SDS011;8331;51.654;14.376;2023-12-04T08:48:39;20.63;;;12.67;;
16442;SDS011;8331;51.654;14.376;2023-12-04T08:51:07;20.33;;;12.23;;
16442;SDS011;8331;51.654;14.376;2023-12-04T08:53:34;19.65;;;15.88;;
16442;SDS011;8331;51.654;14.376;2023-12-04T08:56:01;22.27;;;13.57;;
16442;SDS011;8331;51.654;14.376;2023-12-04T08:58:29;17.47;;;11.20;;
16442;SDS011;8331;51.654;14.376;2023-12-04T09:00:56;18.13;;;12.80;;
16442;SDS011;8331;51.654;14.376;2023-12-04T09:03:23;23.33;;;14.37;;
16442;SDS011;8331;51.654;14.376;2023-12-04T09:05:57;31.53;;;17.87;;
16442;SDS011;8331;51.654;14.376;2023-12-04T09:08:24;44.33;;;21.53;;
16442;SDS011;8331;51.654;14.376;2023-12-04T09:11:05;52.80;;;22.90;;
16442;SDS011;8331;51.654;14.376;2023-12-04T09:13:34;36.30;;;18.43;;
16442;SDS011;8331;51.654;14.376;2023-12-04T09:16:01;42.60;;;18.83;;
16442;SDS011;8331;51.654;14.376;2023-12-04T09:18:28;55.23;;;21.87;;
16442;SDS011;8331;51.654;14.376;2023-12-04T09:20:54;55.53;;;23.27;;
16442;SDS011;8331;51.654;14.376;2023-12-04T09:23:21;63.63;;;25.17;;
16442;SDS011;8331;51.654;14.376;2023-12-04T09:25:48;34.40;;;16.40;;
16442;SDS011;8331;51.654;14.376;2023-12-04T09:28:14;26.43;;;16.10;;
16442;SDS011;8331;51.654;14.376;2023-12-04T09:30:41;23.63;;;14.73;;
16442;SDS011;8331;51.654;14.376;2023-12-04T09:33:08;24.13;;;15.15;;
16442;SDS011;8331;51.654;14.376;2023-12-04T09:35:34;18.43;;;12.67;;
16442;SDS011;8331;51.654;14.376;2023-12-04T09:38:01;20.87;;;13.37;;
16442;SDS011;8331;51.654;14.376;2023-12-04T09:40:28;18.77;;;12.20;;
16442;SDS011;8331;51.654;14.376;2023-12-04T09:42:55;17.70;;;11.87;;
16442;SDS011;8331;51.654;14.376;2023-12-04T09:45:22;19.37;;;12.60;;
16442;SDS011;8331;51.654;14.376;2023-12-04T09:47:50;18.03;;;12.03;;
16442;SDS011;8331;51.654;14.376;2023-12-04T09:50:16;19.13;;;12.77;;
16442;SDS011;8331;51.654;14.376;2023-12-04T09:52:49;18.67;;;12.80;;
16442;SDS011;8331;51.654;14.376;2023-12-04T09:55:19;18.00;;;12.27;;
16442;SDS011;8331;51.654;14.376;2023-12-04T09:57:46;19.33;;;12.63;;
16442;SDS011;8331;51.654;14.376;2023-12-04T10:00:13;21.17;;;13.23;;
16442;SDS011;8331;51.654;14.376;2023-12-04T10:02:41;19.17;;;12.73;;
16442;SDS011;8331;51.654;14.376;2023-12-04T10:05:08;24.23;;;14.10;;
16442;SDS011;8331;51.654;14.376;2023-12-04T10:07:35;22.63;;;14.27;;
16442;SDS011;8331;51.654;14.376;2023-12-04T10:10:03;20.70;;;12.70;;
16442;SDS011;8331;51.654;14.376;2023-12-04T10:12:32;22.67;;;13.67;;
16442;SDS011;8331;51.654;14.376;2023-12-04T10:15:07;19.83;;;13.47;;
16442;SDS011;8331;51.654;14.376;2023-12-04T10:17:44;19.87;;;12.53;;
16442;SDS011;8331;51.654;14.376;2023-12-04T10:20:14;16.93;;;12.07;;
16442;SDS011;8331;51.654;14.376;2023-12-04T10:25:18;24.80;;;13.07;;
16442;SDS011;8331;51.654;14.376;2023-12-04T10:27:45;16.37;;;11.33;;
16442;SDS011;8331;51.654;14.376;2023-12-04T10:30:28;21.53;;;12.70;;
16442;SDS011;8331;51.654;14.376;2023-12-04T10:33:03;19.20;;;13.00;;
16442;SDS011;8331;51.654;14.376;2023-12-04T10:35:33;25.60;;;14.13;;
16442;SDS011;8331;51.654;14.376;2023-12-04T10:38:03;21.67;;;13.93;;
16442;SDS011;8331;51.654;14.376;2023-12-04T10:40:31;18.20;;;12.23;;
16442;SDS011;8331;51.654;14.376;2023-12-04T10:45:43;18.67;;;12.63;;
16442;SDS011;8331;51.654;14.376;2023-12-04T10:48:12;16.17;;;11.60;;
16442;SDS011;8331;51.654;14.376;2023-12-04T10:50:43;19.07;;;12.50;;
16442;SDS011;8331;51.654;14.376;2023-12-04T10:53:13;15.63;;;11.10;;
16442;SDS011;8331;51.654;14.376;2023-12-04T10:55:40;19.53;;;12.60;;
16442;SDS011;8331;51.654;14.376;2023-12-04T10:58:08;18.07;;;12.47;;
16442;SDS011;8331;51.654;14.376;2023-12-04T11:00:39;18.60;;;12.43;;
16442;SDS011;8331;51.654;14.376;2023-12-04T11:03:10;17.50;;;11.97;;
16442;SDS011;8331;51.654;14.376;2023-12-04T11:05:38;18.00;;;11.93;;
16442;SDS011;8331;51.654;14.376;2023-12-04T11:08:06;14.60;;;10.63;;
16442;SDS011;8331;51.654;14.376;2023-12-04T11:13:26;15.23;;;10.80;;
16442;SDS011;8331;51.654;14.376;2023-12-04T11:15:53;14.27;;;10.60;;
16442;SDS011;8331;51.654;14.376;2023-12-04T11:18:23;15.93;;;10.90;;
16442;SDS011;8331;51.654;14.376;2023-12-04T11:20:51;15.17;;;10.90;;
16442;SDS011;8331;51.654;14.376;2023-12-04T11:23:20;14.53;;;10.50;;
16442;SDS011;8331;51.654;14.376;2023-12-04T11:25:47;13.00;;;10.27;;
16442;SDS011;8331;51.654;14.376;2023-12-04T11:28:14;16.10;;;11.13;;
16442;SDS011;8331;51.654;14.376;2023-12-04T11:30:42;14.67;;;10.37;;
16442;SDS011;8331;51.654;14.376;2023-12-04T11:33:09;13.73;;;10.33;;
16442;SDS011;8331;51.654;14.376;2023-12-04T11:35:38;13.37;;;10.03;;
16442;SDS011;8331;51.654;14.376;2023-12-04T11:38:05;14.43;;;10.30;;
16442;SDS011;8331;51.654;14.376;2023-12-04T11:40:33;12.50;;;9.80;;
16442;SDS011;8331;51.654;14.376;2023-12-04T11:43:01;14.40;;;10.23;;
16442;SDS011;8331;51.654;14.376;2023-12-04T11:45:27;14.47;;;10.27;;
16442;SDS011;8331;51.654;14.376;2023-12-04T11:47:58;12.33;;;9.50;;
16442;SDS011;8331;51.654;14.376;2023-12-04T11:50:25;14.03;;;10.30;;
16442;SDS011;8331;51.654;14.376;2023-12-04T11:52:51;17.77;;;12.93;;
16442;SDS011;8331;51.654;14.376;2023-12-04T11:55:21;13.27;;;10.57;;
16442;SDS011;8331;51.654;14.376;2023-12-04T11:57:49;17.93;;;12.17;;
16442;SDS011;8331;51.654;14.376;2023-12-04T12:05:33;12.23;;;9.20;;
16442;SDS011;8331;51.654;14.376;2023-12-04T12:08:05;11.87;;;9.53;;
16442;SDS011;8331;51.654;14.376;2023-12-04T12:10:32;11.80;;;9.23;;
16442;SDS011;8331;51.654;14.376;2023-12-04T12:12:59;13.20;;;10.03;;
16442;SDS011;8331;51.654;14.376;2023-12-04T12:15:25;11.73;;;10.10;;
16442;SDS011;8331;51.654;14.376;2023-12-04T12:17:53;13.93;;;10.43;;
16442;SDS011;8331;51.654;14.376;2023-12-04T12:20:19;14.70;;;11.30;;
16442;SDS011;8331;51.654;14.376;2023-12-04T12:22:49;16.47;;;13.93;;
16442;SDS011;8331;51.654;14.376;2023-12-04T12:25:17;12.23;;;9.63;;
16442;SDS011;8331;51.654;14.376;2023-12-04T12:27:44;12.90;;;10.00;;
16442;SDS011;8331;51.654;14.376;2023-12-04T12:30:11;11.93;;;9.73;;
16442;SDS011;8331;51.654;14.376;2023-12-04T12:32:38;12.03;;;9.50;;
16442;SDS011;8331;51.654;14.376;2023-12-04T12:35:05;12.97;;;10.77;;
16442;SDS011;8331;51.654;14.376;2023-12-04T12:37:34;14.30;;;12.27;;
16442;SDS011;8331;51.654;14.376;2023-12-04T12:40:01;13.80;;;10.77;;
16442;SDS011;8331;51.654;14.376;2023-12-04T12:42:30;11.67;;;8.93;;
16442;SDS011;8331;51.654;14.376;2023-12-04T12:44:59;10.10;;;8.03;;
16442;SDS011;8331;51.654;14.376;2023-12-04T12:47:26;9.53;;;8.00;;
16442;SDS011;8331;51.654;14.376;2023-12-04T12:49:53;9.90;;;8.20;;
16442;SDS011;8331;51.654;14.376;2023-12-04T12:52:20;9.10;;;8.10;;
16442;SDS011;8331;51.654;14.376;2023-12-04T12:54:47;8.93;;;7.80;;
16442;SDS011;8331;51.654;14.376;2023-12-04T12:57:14;9.53;;;7.50;;
16442;SDS011;8331;51.654;14.376;2023-12-04T12:59:41;9.20;;;7.60;;
16442;SDS011;8331;51.654;14.376;2023-12-04T13:02:07;9.93;;;7.43;;
16442;SDS011;8331;51.654;14.376;2023-12-04T13:04:38;9.37;;;7.77;;
16442;SDS011;8331;51.654;14.376;2023-12-04T13:07:05;8.67;;;7.43;;
16442;SDS011;8331;51.654;14.376;2023-12-04T13:09:35;8.70;;;7.67;;
16442;SDS011;8331;51.654;14.376;2023-12-04T13:12:05;8.47;;;7.07;;
16442;SDS011;8331;51.654;14.376;2023-12-04T13:14:33;9.23;;;7.67;;
16442;SDS011;8331;51.654;14.376;2023-12-04T13:17:01;8.90;;;7.70;;
16442;SDS011;8331;51.654;14.376;2023-12-04T13:19:28;9.27;;;7.87;;
16442;SDS011;8331;51.654;14.376;2023-12-04T13:21:54;9.90;;;7.53;;
16442;SDS011;8331;51.654;14.376;2023-12-04T13:24:21;14.97;;;11.87;;
16442;SDS011;8331;51.654;14.376;2023-12-04T13:26:47;16.37;;;12.17;;
16442;SDS011;8331;51.654;14.376;2023-12-04T13:29:14;18.00;;;12.67;;
16442;SDS011;8331;51.654;14.376;2023-12-04T13:31:45;16.90;;;13.50;;
16442;SDS011;8331;51.654;14.376;2023-12-04T13:34:17;18.97;;;13.70;;
16442;SDS011;8331;51.654;14.376;2023-12-04T13:36:43;17.97;;;13.23;;
16442;SDS011;8331;51.654;14.376;2023-12-04T13:39:11;15.07;;;12.93;;
16442;SDS011;8331;51.654;14.376;2023-12-04T13:41:46;12.77;;;10.47;;
16442;SDS011;8331;51.654;14.376;2023-12-04T13:44:32;10.73;;;9.37;;
16442;SDS011;8331;51.654;14.376;2023-12-04T13:47:00;10.07;;;8.37;;
16442;SDS011;8331;51.654;14.376;2023-12-04T13:49:26;10.60;;;8.13;;
16442;SDS011;8331;51.654;14.376;2023-12-04T13:51:54;10.10;;;8.10;;
16442;SDS011;8331;51.654;14.376;2023-12-04T13:54:21;11.53;;;8.53;;
16442;SDS011;8331;51.654;14.376;2023-12-04T13:56:54;10.70;;;8.30;;
16442;SDS011;8331;51.654;14.376;2023-12-04T13:59:23;10.27;;;8.50;;
16442;SDS011;8331;51.654;14.376;2023-12-04T14:01:50;9.47;;;8.20;;
16442;SDS011;8331;51.654;14.376;2023-12-04T14:04:18;9.83;;;8.13;;
16442;SDS011;8331;51.654;14.376;2023-12-04T14:06:46;8.57;;;7.53;;
16442;SDS011;8331;51.654;14.376;2023-12-04T14:09:13;10.37;;;7.73;;
16442;SDS011;8331;51.654;14.376;2023-12-04T14:11:43;11.07;;;7.83;;
16442;SDS011;8331;51.654;14.376;2023-12-04T14:14:14;10.17;;;7.87;;
16442;SDS011;8331;51.654;14.376;2023-12-04T14:16:40;10.07;;;7.77;;
16442;SDS011;8331;51.654;14.376;2023-12-04T14:19:08;11.17;;;7.90;;
16442;SDS011;8331;51.654;14.376;2023-12-04T14:21:35;10.57;;;7.93;;
16442;SDS011;8331;51.654;14.376;2023-12-04T14:24:02;8.97;;;7.27;;
16442;SDS011;8331;51.654;14.376;2023-12-04T14:26:28;10.10;;;8.13;;
16442;SDS011;8331;51.654;14.376;2023-12-04T14:28:55;9.82;;;8.93;;
16442;SDS011;8331;51.654;14.376;2023-12-04T14:31:23;9.07;;;7.33;;
16442;SDS011;8331;51.654;14.376;2023-12-04T14:33:50;9.00;;;6.80;;
16442;SDS011;8331;51.654;14.376;2023-12-04T14:36:18;9.70;;;7.10;;
16442;SDS011;8331;51.654;14.376;2023-12-04T14:38:44;8.80;;;7.40;;